Fayette, Missouri
Current Conditions -  °F | °C
As of 1:15 AM on Saturday 25 Oct 2014 (Local Time) from KVER Reporting Station
Clear Clear  
Wind Chill: 65°   Ceiling: Unl
Heat Index: 65°   Visibility: 10mi
Dew Point: 60°   Wind: 3mph
Humidity: 84%   Direction: 240°WSW
Pressure: 29.99"   Gusts: NA
Location:  39.15°N, 92.68°W
Report Text: KVER 250615Z AUTO 24003KT 10SM CLR 18/16 A2999 RMK AO2 T01830155
Loading
Personal Weather Stations






























Interactive Weather Map New forecast layout! Learn more

10-Day Weather Forecast

Advertisements
Track Severe Weather on mobile